Terminal Aerodrome Forecast
Issued by NWS Sioux Falls, SD

Home | Current Version | Previous Version | Text Only | Print | Product List | Glossary Off
Versions: 1 2 3 4 5 6 7 8 9 10 11 12 13 14 15 16 17 18 19 20 21 22 23 24 25 26 27 28 29 30

458
FTUS43 KFSD 240525
TAFSUX
TAF
KSUX 240525Z 2406/2506 32007KT P6SM SKC
     FM241400 29008KT P6SM SKC
     FM241600 29012G20KT P6SM FEW250
     FM250100 33009KT P6SM SKC=

USA.gov is the U.S. government's official web portal to all federal, state and local government web resources and services.